sensor_id;sensor_type;location;lat;lon;timestamp;P1;durP1;ratioP1;P2;durP2;ratioP2
40993;SDS011;26722;43.212;27.932;2023-11-18T00:02:19;37.28;;;24.00;;
40993;SDS011;26722;43.212;27.932;2023-11-18T00:04:44;35.85;;;21.70;;
40993;SDS011;26722;43.212;27.932;2023-11-18T00:07:09;39.15;;;21.92;;
40993;SDS011;26722;43.212;27.932;2023-11-18T00:09:35;37.55;;;20.48;;
40993;SDS011;26722;43.212;27.932;2023-11-18T00:12:01;29.70;;;17.50;;
40993;SDS011;26722;43.212;27.932;2023-11-18T00:14:29;33.90;;;19.08;;
40993;SDS011;26722;43.212;27.932;2023-11-18T00:16:54;24.52;;;16.08;;
40993;SDS011;26722;43.212;27.932;2023-11-18T00:19:20;29.30;;;16.55;;
40993;SDS011;26722;43.212;27.932;2023-11-18T00:21:45;25.13;;;15.02;;
40993;SDS011;26722;43.212;27.932;2023-11-18T00:24:11;22.08;;;14.15;;
40993;SDS011;26722;43.212;27.932;2023-11-18T00:26:36;23.13;;;14.85;;
40993;SDS011;26722;43.212;27.932;2023-11-18T00:29:01;25.33;;;13.73;;
40993;SDS011;26722;43.212;27.932;2023-11-18T00:31:27;21.17;;;14.18;;
40993;SDS011;26722;43.212;27.932;2023-11-18T00:33:52;41.42;;;23.88;;
40993;SDS011;26722;43.212;27.932;2023-11-18T00:36:18;39.47;;;23.08;;
40993;SDS011;26722;43.212;27.932;2023-11-18T00:38:43;43.78;;;25.17;;
40993;SDS011;26722;43.212;27.932;2023-11-18T00:41:09;44.90;;;25.45;;
40993;SDS011;26722;43.212;27.932;2023-11-18T00:43:35;47.75;;;25.75;;
40993;SDS011;26722;43.212;27.932;2023-11-18T00:46:00;50.95;;;27.35;;
40993;SDS011;26722;43.212;27.932;2023-11-18T00:48:28;44.55;;;25.67;;
40993;SDS011;26722;43.212;27.932;2023-11-18T00:50:53;38.42;;;21.10;;
40993;SDS011;26722;43.212;27.932;2023-11-18T00:53:19;32.92;;;17.95;;
40993;SDS011;26722;43.212;27.932;2023-11-18T00:55:44;37.92;;;19.50;;
40993;SDS011;26722;43.212;27.932;2023-11-18T00:58:10;33.15;;;18.92;;
40993;SDS011;26722;43.212;27.932;2023-11-18T01:00:35;31.05;;;18.95;;
40993;SDS011;26722;43.212;27.932;2023-11-18T01:03:01;30.13;;;18.40;;
40993;SDS011;26722;43.212;27.932;2023-11-18T01:05:28;31.20;;;17.25;;
40993;SDS011;26722;43.212;27.932;2023-11-18T01:07:56;22.38;;;12.85;;
40993;SDS011;26722;43.212;27.932;2023-11-18T01:10:21;18.38;;;11.05;;
40993;SDS011;26722;43.212;27.932;2023-11-18T01:12:47;21.95;;;12.55;;
40993;SDS011;26722;43.212;27.932;2023-11-18T01:15:12;16.63;;;10.23;;
40993;SDS011;26722;43.212;27.932;2023-11-18T01:17:39;18.83;;;11.45;;
40993;SDS011;26722;43.212;27.932;2023-11-18T01:20:05;16.67;;;10.02;;
40993;SDS011;26722;43.212;27.932;2023-11-18T01:22:36;18.98;;;10.88;;
40993;SDS011;26722;43.212;27.932;2023-11-18T01:25:05;17.33;;;11.02;;
40993;SDS011;26722;43.212;27.932;2023-11-18T01:27:33;16.65;;;9.55;;
40993;SDS011;26722;43.212;27.932;2023-11-18T01:29:59;17.40;;;10.48;;
40993;SDS011;26722;43.212;27.932;2023-11-18T01:32:25;16.90;;;10.52;;
40993;SDS011;26722;43.212;27.932;2023-11-18T01:34:50;16.95;;;10.63;;
40993;SDS011;26722;43.212;27.932;2023-11-18T01:37:16;17.83;;;10.40;;
40993;SDS011;26722;43.212;27.932;2023-11-18T01:39:42;15.88;;;9.45;;
40993;SDS011;26722;43.212;27.932;2023-11-18T01:42:08;17.05;;;11.35;;
40993;SDS011;26722;43.212;27.932;2023-11-18T01:44:33;14.88;;;9.88;;
40993;SDS011;26722;43.212;27.932;2023-11-18T01:47:00;17.17;;;10.55;;
40993;SDS011;26722;43.212;27.932;2023-11-18T01:49:31;17.40;;;10.25;;
40993;SDS011;26722;43.212;27.932;2023-11-18T01:52:00;17.52;;;9.93;;
40993;SDS011;26722;43.212;27.932;2023-11-18T01:54:26;13.32;;;8.95;;
40993;SDS011;26722;43.212;27.932;2023-11-18T01:56:53;17.70;;;9.23;;
40993;SDS011;26722;43.212;27.932;2023-11-18T01:59:20;18.02;;;9.82;;
40993;SDS011;26722;43.212;27.932;2023-11-18T02:01:54;13.02;;;8.73;;
40993;SDS011;26722;43.212;27.932;2023-11-18T02:04:24;15.20;;;10.15;;
40993;SDS011;26722;43.212;27.932;2023-11-18T02:06:51;30.20;;;10.05;;
40993;SDS011;26722;43.212;27.932;2023-11-18T02:09:18;17.45;;;9.48;;
40993;SDS011;26722;43.212;27.932;2023-11-18T02:11:45;17.92;;;9.98;;
40993;SDS011;26722;43.212;27.932;2023-11-18T02:14:21;16.85;;;10.80;;
40993;SDS011;26722;43.212;27.932;2023-11-18T02:16:52;17.40;;;11.13;;
40993;SDS011;26722;43.212;27.932;2023-11-18T02:19:21;19.27;;;12.02;;
40993;SDS011;26722;43.212;27.932;2023-11-18T02:21:49;20.85;;;12.27;;
40993;SDS011;26722;43.212;27.932;2023-11-18T02:24:25;24.08;;;13.35;;
40993;SDS011;26722;43.212;27.932;2023-11-18T02:26:52;21.58;;;12.73;;
40993;SDS011;26722;43.212;27.932;2023-11-18T02:29:18;24.00;;;12.85;;
40993;SDS011;26722;43.212;27.932;2023-11-18T02:31:44;19.92;;;10.20;;
40993;SDS011;26722;43.212;27.932;2023-11-18T02:34:13;26.45;;;13.88;;
40993;SDS011;26722;43.212;27.932;2023-11-18T02:36:46;20.77;;;12.20;;
40993;SDS011;26722;43.212;27.932;2023-11-18T02:41:42;25.40;;;15.20;;
40993;SDS011;26722;43.212;27.932;2023-11-18T02:44:13;27.23;;;13.98;;
40993;SDS011;26722;43.212;27.932;2023-11-18T02:46:42;25.95;;;11.50;;
40993;SDS011;26722;43.212;27.932;2023-11-18T02:49:08;23.25;;;13.23;;
40993;SDS011;26722;43.212;27.932;2023-11-18T02:51:34;24.42;;;13.55;;
40993;SDS011;26722;43.212;27.932;2023-11-18T02:54:07;25.25;;;13.52;;
40993;SDS011;26722;43.212;27.932;2023-11-18T02:56:35;25.08;;;14.32;;
40993;SDS011;26722;43.212;27.932;2023-11-18T02:59:04;26.23;;;14.13;;
40993;SDS011;26722;43.212;27.932;2023-11-18T03:01:33;23.23;;;13.75;;
40993;SDS011;26722;43.212;27.932;2023-11-18T03:03:59;25.35;;;13.98;;
40993;SDS011;26722;43.212;27.932;2023-11-18T03:06:27;27.75;;;14.85;;
40993;SDS011;26722;43.212;27.932;2023-11-18T03:08:53;26.00;;;15.07;;
40993;SDS011;26722;43.212;27.932;2023-11-18T03:11:19;30.40;;;15.88;;
40993;SDS011;26722;43.212;27.932;2023-11-18T03:13:45;28.65;;;15.68;;
40993;SDS011;26722;43.212;27.932;2023-11-18T03:16:13;29.70;;;16.33;;
40993;SDS011;26722;43.212;27.932;2023-11-18T03:18:39;32.00;;;16.75;;
40993;SDS011;26722;43.212;27.932;2023-11-18T03:21:06;27.00;;;14.27;;
40993;SDS011;26722;43.212;27.932;2023-11-18T03:23:37;27.42;;;13.57;;
40993;SDS011;26722;43.212;27.932;2023-11-18T03:26:03;31.67;;;16.88;;
40993;SDS011;26722;43.212;27.932;2023-11-18T03:28:30;27.08;;;15.65;;
40993;SDS011;26722;43.212;27.932;2023-11-18T03:30:56;29.92;;;15.60;;
40993;SDS011;26722;43.212;27.932;2023-11-18T03:33:22;30.60;;;16.40;;
40993;SDS011;26722;43.212;27.932;2023-11-18T03:35:47;29.27;;;16.20;;
40993;SDS011;26722;43.212;27.932;2023-11-18T03:38:13;29.08;;;16.25;;
40993;SDS011;26722;43.212;27.932;2023-11-18T03:40:40;28.27;;;15.85;;
40993;SDS011;26722;43.212;27.932;2023-11-18T03:43:06;27.27;;;14.43;;
40993;SDS011;26722;43.212;27.932;2023-11-18T03:45:32;27.00;;;15.73;;
40993;SDS011;26722;43.212;27.932;2023-11-18T03:47:58;29.02;;;16.30;;
40993;SDS011;26722;43.212;27.932;2023-11-18T03:50:25;26.85;;;14.07;;
40993;SDS011;26722;43.212;27.932;2023-11-18T03:52:51;30.88;;;16.60;;
40993;SDS011;26722;43.212;27.932;2023-11-18T03:55:17;25.75;;;13.18;;
40993;SDS011;26722;43.212;27.932;2023-11-18T03:57:43;31.67;;;15.70;;
40993;SDS011;26722;43.212;27.932;2023-11-18T04:00:10;34.53;;;19.10;;
40993;SDS011;26722;43.212;27.932;2023-11-18T04:02:36;30.17;;;16.60;;
40993;SDS011;26722;43.212;27.932;2023-11-18T04:05:04;34.40;;;20.15;;
40993;SDS011;26722;43.212;27.932;2023-11-18T04:07:29;32.55;;;19.38;;
40993;SDS011;26722;43.212;27.932;2023-11-18T04:09:55;35.45;;;19.40;;
40993;SDS011;26722;43.212;27.932;2023-11-18T04:12:20;34.70;;;17.83;;
40993;SDS011;26722;43.212;27.932;2023-11-18T04:14:46;27.33;;;14.45;;
40993;SDS011;26722;43.212;27.932;2023-11-18T04:17:11;36.13;;;19.45;;
40993;SDS011;26722;43.212;27.932;2023-11-18T04:19:36;33.95;;;19.92;;
40993;SDS011;26722;43.212;27.932;2023-11-18T04:22:03;32.60;;;17.38;;
40993;SDS011;26722;43.212;27.932;2023-11-18T04:24:29;25.17;;;13.25;;
40993;SDS011;26722;43.212;27.932;2023-11-18T04:26:55;32.15;;;15.68;;
40993;SDS011;26722;43.212;27.932;2023-11-18T04:29:20;26.70;;;14.15;;
40993;SDS011;26722;43.212;27.932;2023-11-18T04:31:48;23.30;;;14.05;;
40993;SDS011;26722;43.212;27.932;2023-11-18T04:34:13;22.42;;;12.00;;
40993;SDS011;26722;43.212;27.932;2023-11-18T04:36:40;25.42;;;14.13;;
40993;SDS011;26722;43.212;27.932;2023-11-18T04:39:06;18.10;;;10.70;;
40993;SDS011;26722;43.212;27.932;2023-11-18T04:41:32;20.00;;;11.15;;
40993;SDS011;26722;43.212;27.932;2023-11-18T04:43:57;18.92;;;10.15;;
40993;SDS011;26722;43.212;27.932;2023-11-18T04:46:23;19.17;;;11.07;;
40993;SDS011;26722;43.212;27.932;2023-11-18T04:48:48;16.05;;;9.13;;
40993;SDS011;26722;43.212;27.932;2023-11-18T04:51:14;15.60;;;9.18;;
40993;SDS011;26722;43.212;27.932;2023-11-18T04:53:39;19.58;;;10.23;;
40993;SDS011;26722;43.212;27.932;2023-11-18T04:56:05;22.13;;;11.07;;
40993;SDS011;26722;43.212;27.932;2023-11-18T04:58:34;22.33;;;10.63;;
40993;SDS011;26722;43.212;27.932;2023-11-18T05:01:01;21.55;;;10.82;;
40993;SDS011;26722;43.212;27.932;2023-11-18T05:03:26;20.15;;;11.32;;
40993;SDS011;26722;43.212;27.932;2023-11-18T05:05:52;23.65;;;12.75;;
40993;SDS011;26722;43.212;27.932;2023-11-18T05:08:18;25.35;;;13.73;;
40993;SDS011;26722;43.212;27.932;2023-11-18T05:10:48;23.90;;;12.07;;
40993;SDS011;26722;43.212;27.932;2023-11-18T05:13:15;22.75;;;10.52;;
40993;SDS011;26722;43.212;27.932;2023-11-18T05:15:42;24.65;;;11.57;;
40993;SDS011;26722;43.212;27.932;2023-11-18T05:18:14;30.55;;;15.23;;
40993;SDS011;26722;43.212;27.932;2023-11-18T05:20:40;26.65;;;13.50;;
40993;SDS011;26722;43.212;27.932;2023-11-18T05:23:09;30.00;;;15.65;;
40993;SDS011;26722;43.212;27.932;2023-11-18T05:25:42;30.02;;;15.25;;
40993;SDS011;26722;43.212;27.932;2023-11-18T05:28:10;31.90;;;16.83;;
40993;SDS011;26722;43.212;27.932;2023-11-18T05:30:36;34.50;;;16.85;;
40993;SDS011;26722;43.212;27.932;2023-11-18T05:33:02;34.95;;;16.00;;
40993;SDS011;26722;43.212;27.932;2023-11-18T05:35:32;36.08;;;19.60;;
40993;SDS011;26722;43.212;27.932;2023-11-18T05:37:58;35.90;;;16.98;;
40993;SDS011;26722;43.212;27.932;2023-11-18T05:40:25;37.67;;;17.38;;
40993;SDS011;26722;43.212;27.932;2023-11-18T05:42:52;35.92;;;17.30;;
40993;SDS011;26722;43.212;27.932;2023-11-18T05:45:20;33.72;;;16.70;;
40993;SDS011;26722;43.212;27.932;2023-11-18T05:47:57;25.17;;;12.00;;
40993;SDS011;26722;43.212;27.932;2023-11-18T05:50:23;22.77;;;10.60;;
40993;SDS011;26722;43.212;27.932;2023-11-18T05:52:52;27.88;;;14.60;;
40993;SDS011;26722;43.212;27.932;2023-11-18T05:55:19;29.10;;;12.23;;
40993;SDS011;26722;43.212;27.932;2023-11-18T05:57:44;28.35;;;15.80;;
40993;SDS011;26722;43.212;27.932;2023-11-18T06:00:11;31.58;;;15.60;;
40993;SDS011;26722;43.212;27.932;2023-11-18T06:02:40;29.75;;;16.08;;
40993;SDS011;26722;43.212;27.932;2023-11-18T06:05:08;22.17;;;12.57;;
40993;SDS011;26722;43.212;27.932;2023-11-18T06:07:35;28.17;;;15.05;;
40993;SDS011;26722;43.212;27.932;2023-11-18T06:10:01;27.33;;;13.10;;
40993;SDS011;26722;43.212;27.932;2023-11-18T06:12:30;21.20;;;11.40;;
40993;SDS011;26722;43.212;27.932;2023-11-18T06:14:56;26.88;;;12.00;;
40993;SDS011;26722;43.212;27.932;2023-11-18T06:17:22;19.55;;;10.32;;
40993;SDS011;26722;43.212;27.932;2023-11-18T06:19:48;25.63;;;14.18;;
40993;SDS011;26722;43.212;27.932;2023-11-18T06:22:14;21.05;;;12.23;;
40993;SDS011;26722;43.212;27.932;2023-11-18T06:24:40;22.65;;;13.35;;
40993;SDS011;26722;43.212;27.932;2023-11-18T06:27:06;26.33;;;14.85;;
40993;SDS011;26722;43.212;27.932;2023-11-18T06:29:34;22.33;;;13.18;;
40993;SDS011;26722;43.212;27.932;2023-11-18T06:31:59;21.95;;;11.52;;
40993;SDS011;26722;43.212;27.932;2023-11-18T06:34:25;22.02;;;11.05;;
40993;SDS011;26722;43.212;27.932;2023-11-18T06:36:52;20.73;;;9.93;;
40993;SDS011;26722;43.212;27.932;2023-11-18T06:39:18;14.70;;;8.80;;
40993;SDS011;26722;43.212;27.932;2023-11-18T06:41:44;15.90;;;9.25;;
40993;SDS011;26722;43.212;27.932;2023-11-18T06:44:16;16.65;;;9.60;;
40993;SDS011;26722;43.212;27.932;2023-11-18T06:46:48;16.92;;;10.20;;
40993;SDS011;26722;43.212;27.932;2023-11-18T06:49:16;19.90;;;11.13;;
40993;SDS011;26722;43.212;27.932;2023-11-18T06:51:42;19.80;;;11.60;;
40993;SDS011;26722;43.212;27.932;2023-11-18T06:54:07;16.20;;;9.13;;
40993;SDS011;26722;43.212;27.932;2023-11-18T06:56:34;17.63;;;10.07;;
40993;SDS011;26722;43.212;27.932;2023-11-18T06:59:06;16.20;;;8.60;;
40993;SDS011;26722;43.212;27.932;2023-11-18T07:01:33;15.88;;;9.38;;
40993;SDS011;26722;43.212;27.932;2023-11-18T07:03:59;12.38;;;8.00;;
40993;SDS011;26722;43.212;27.932;2023-11-18T07:06:24;16.33;;;9.25;;
40993;SDS011;26722;43.212;27.932;2023-11-18T07:08:51;13.45;;;7.18;;
40993;SDS011;26722;43.212;27.932;2023-11-18T07:11:18;11.95;;;7.35;;
40993;SDS011;26722;43.212;27.932;2023-11-18T07:13:45;13.05;;;7.80;;
40993;SDS011;26722;43.212;27.932;2023-11-18T07:16:12;13.18;;;8.15;;
40993;SDS011;26722;43.212;27.932;2023-11-18T07:18:39;12.27;;;7.07;;
40993;SDS011;26722;43.212;27.932;2023-11-18T07:21:05;11.13;;;6.55;;
40993;SDS011;26722;43.212;27.932;2023-11-18T07:23:31;14.48;;;9.20;;
40993;SDS011;26722;43.212;27.932;2023-11-18T07:25:57;13.07;;;8.30;;
40993;SDS011;26722;43.212;27.932;2023-11-18T07:28:23;13.05;;;7.80;;
40993;SDS011;26722;43.212;27.932;2023-11-18T07:30:49;14.32;;;8.38;;
40993;SDS011;26722;43.212;27.932;2023-11-18T07:33:14;11.27;;;6.45;;
40993;SDS011;26722;43.212;27.932;2023-11-18T07:35:41;10.25;;;7.03;;
40993;SDS011;26722;43.212;27.932;2023-11-18T07:38:07;15.30;;;8.13;;
40993;SDS011;26722;43.212;27.932;2023-11-18T07:40:33;11.65;;;7.60;;
40993;SDS011;26722;43.212;27.932;2023-11-18T07:42:59;10.73;;;7.15;;
40993;SDS011;26722;43.212;27.932;2023-11-18T07:45:28;10.88;;;7.10;;
40993;SDS011;26722;43.212;27.932;2023-11-18T07:47:59;14.00;;;8.60;;
40993;SDS011;26722;43.212;27.932;2023-11-18T07:50:24;14.60;;;9.40;;
40993;SDS011;26722;43.212;27.932;2023-11-18T07:52:51;12.68;;;9.20;;
40993;SDS011;26722;43.212;27.932;2023-11-18T07:55:17;13.57;;;10.00;;
40993;SDS011;26722;43.212;27.932;2023-11-18T07:57:43;15.70;;;9.90;;
40993;SDS011;26722;43.212;27.932;2023-11-18T08:00:09;11.70;;;8.13;;
40993;SDS011;26722;43.212;27.932;2023-11-18T08:02:35;10.45;;;7.10;;
40993;SDS011;26722;43.212;27.932;2023-11-18T08:05:02;7.38;;;4.10;;
40993;SDS011;26722;43.212;27.932;2023-11-18T08:07:28;6.78;;;5.32;;
40993;SDS011;26722;43.212;27.932;2023-11-18T08:09:54;9.82;;;5.90;;
40993;SDS011;26722;43.212;27.932;2023-11-18T08:12:19;9.65;;;7.05;;
40993;SDS011;26722;43.212;27.932;2023-11-18T08:14:45;8.85;;;6.28;;
40993;SDS011;26722;43.212;27.932;2023-11-18T08:17:12;7.20;;;4.95;;
40993;SDS011;26722;43.212;27.932;2023-11-18T08:19:38;6.57;;;3.95;;
40993;SDS011;26722;43.212;27.932;2023-11-18T08:22:04;6.88;;;5.85;;
40993;SDS011;26722;43.212;27.932;2023-11-18T08:24:31;6.10;;;4.40;;
40993;SDS011;26722;43.212;27.932;2023-11-18T08:26:58;6.97;;;4.65;;
40993;SDS011;26722;43.212;27.932;2023-11-18T08:29:24;7.30;;;3.80;;
40993;SDS011;26722;43.212;27.932;2023-11-18T08:31:53;7.70;;;4.03;;
40993;SDS011;26722;43.212;27.932;2023-11-18T08:34:18;5.53;;;3.90;;
40993;SDS011;26722;43.212;27.932;2023-11-18T08:36:44;4.15;;;3.22;;
40993;SDS011;26722;43.212;27.932;2023-11-18T08:39:09;3.25;;;2.50;;
40993;SDS011;26722;43.212;27.932;2023-11-18T08:41:41;4.60;;;3.17;;
40993;SDS011;26722;43.212;27.932;2023-11-18T08:44:08;4.88;;;3.53;;
40993;SDS011;26722;43.212;27.932;2023-11-18T08:46:38;4.40;;;3.13;;
40993;SDS011;26722;43.212;27.932;2023-11-18T08:49:04;5.15;;;3.38;;
40993;SDS011;26722;43.212;27.932;2023-11-18T08:51:36;3.65;;;2.50;;
40993;SDS011;26722;43.212;27.932;2023-11-18T08:54:03;3.65;;;3.03;;
40993;SDS011;26722;43.212;27.932;2023-11-18T08:56:47;3.35;;;2.60;;
40993;SDS011;26722;43.212;27.932;2023-11-18T08:59:17;4.25;;;2.75;;
40993;SDS011;26722;43.212;27.932;2023-11-18T09:01:50;4.38;;;3.47;;
40993;SDS011;26722;43.212;27.932;2023-11-18T09:04:20;4.85;;;3.90;;
40993;SDS011;26722;43.212;27.932;2023-11-18T09:06:50;4.90;;;3.28;;
40993;SDS011;26722;43.212;27.932;2023-11-18T09:09:22;4.22;;;3.30;;
40993;SDS011;26722;43.212;27.932;2023-11-18T09:11:54;5.95;;;2.63;;
40993;SDS011;26722;43.212;27.932;2023-11-18T09:14:24;3.65;;;2.95;;
40993;SDS011;26722;43.212;27.932;2023-11-18T09:16:51;8.45;;;3.25;;
40993;SDS011;26722;43.212;27.932;2023-11-18T09:19:17;5.85;;;3.42;;
40993;SDS011;26722;43.212;27.932;2023-11-18T09:21:44;4.78;;;3.13;;
40993;SDS011;26722;43.212;27.932;2023-11-18T09:24:10;3.42;;;2.90;;
40993;SDS011;26722;43.212;27.932;2023-11-18T09:26:38;5.93;;;3.55;;
40993;SDS011;26722;43.212;27.932;2023-11-18T09:29:05;4.60;;;3.42;;
40993;SDS011;26722;43.212;27.932;2023-11-18T09:31:36;4.53;;;3.45;;
40993;SDS011;26722;43.212;27.932;2023-11-18T09:34:02;4.55;;;3.60;;
40993;SDS011;26722;43.212;27.932;2023-11-18T09:36:32;5.72;;;4.20;;
40993;SDS011;26722;43.212;27.932;2023-11-18T09:38:58;3.70;;;2.63;;
40993;SDS011;26722;43.212;27.932;2023-11-18T09:41:24;5.95;;;2.80;;
40993;SDS011;26722;43.212;27.932;2023-11-18T09:43:52;4.88;;;3.78;;
40993;SDS011;26722;43.212;27.932;2023-11-18T09:46:26;6.22;;;3.83;;
40993;SDS011;26722;43.212;27.932;2023-11-18T09:51:41;5.43;;;4.32;;
40993;SDS011;26722;43.212;27.932;2023-11-18T09:54:13;7.50;;;4.90;;
40993;SDS011;26722;43.212;27.932;2023-11-18T10:02:39;2.85;;;2.50;;
40993;SDS011;26722;43.212;27.932;2023-11-18T10:05:06;5.20;;;3.13;;
40993;SDS011;26722;43.212;27.932;2023-11-18T10:07:40;5.15;;;3.33;;
40993;SDS011;26722;43.212;27.932;2023-11-18T10:10:09;3.47;;;2.50;;
40993;SDS011;26722;43.212;27.932;2023-11-18T10:12:42;3.73;;;2.77;;
40993;SDS011;26722;43.212;27.932;2023-11-18T10:15:11;4.72;;;2.58;;
40993;SDS011;26722;43.212;27.932;2023-11-18T10:17:42;5.32;;;3.00;;
40993;SDS011;26722;43.212;27.932;2023-11-18T10:20:22;4.68;;;2.75;;
40993;SDS011;26722;43.212;27.932;2023-11-18T10:23:12;4.78;;;2.90;;
40993;SDS011;26722;43.212;27.932;2023-11-18T10:25:52;3.47;;;2.80;;
40993;SDS011;26722;43.212;27.932;2023-11-18T10:28:25;5.50;;;2.60;;
40993;SDS011;26722;43.212;27.932;2023-11-18T10:30:58;4.78;;;3.00;;
40993;SDS011;26722;43.212;27.932;2023-11-18T10:33:37;4.53;;;3.17;;
40993;SDS011;26722;43.212;27.932;2023-11-18T10:36:06;7.13;;;3.70;;
40993;SDS011;26722;43.212;27.932;2023-11-18T10:38:47;3.65;;;2.10;;
40993;SDS011;26722;43.212;27.932;2023-11-18T10:41:15;4.07;;;2.95;;
40993;SDS011;26722;43.212;27.932;2023-11-18T10:43:44;5.22;;;2.80;;
40993;SDS011;26722;43.212;27.932;2023-11-18T10:46:12;4.68;;;2.80;;
40993;SDS011;26722;43.212;27.932;2023-11-18T10:48:57;5.57;;;3.08;;
40993;SDS011;26722;43.212;27.932;2023-11-18T10:51:23;6.05;;;3.20;;
40993;SDS011;26722;43.212;27.932;2023-11-18T10:53:51;5.53;;;2.58;;
40993;SDS011;26722;43.212;27.932;2023-11-18T10:56:27;2.80;;;2.13;;
40993;SDS011;26722;43.212;27.932;2023-11-18T10:58:57;3.92;;;2.63;;
40993;SDS011;26722;43.212;27.932;2023-11-18T11:01:35;3.65;;;2.38;;
40993;SDS011;26722;43.212;27.932;2023-11-18T11:06:45;4.55;;;1.92;;
40993;SDS011;26722;43.212;27.932;2023-11-18T11:09:17;3.85;;;2.80;;
40993;SDS011;26722;43.212;27.932;2023-11-18T11:11:54;4.60;;;2.92;;
40993;SDS011;26722;43.212;27.932;2023-11-18T11:14:22;3.60;;;2.65;;
40993;SDS011;26722;43.212;27.932;2023-11-18T11:17:00;4.18;;;2.75;;
40993;SDS011;26722;43.212;27.932;2023-11-18T11:22:46;5.63;;;4.00;;
40993;SDS011;26722;43.212;27.932;2023-11-18T11:25:24;5.30;;;3.10;;
40993;SDS011;26722;43.212;27.932;2023-11-18T11:28:08;7.75;;;4.35;;
40993;SDS011;26722;43.212;27.932;2023-11-18T11:33:57;3.90;;;3.10;;
40993;SDS011;26722;43.212;27.932;2023-11-18T11:36:37;7.55;;;3.42;;
40993;SDS011;26722;43.212;27.932;2023-11-18T11:39:06;4.45;;;2.88;;
40993;SDS011;26722;43.212;27.932;2023-11-18T11:41:36;3.45;;;2.55;;
40993;SDS011;26722;43.212;27.932;2023-11-18T11:44:02;4.82;;;3.40;;
40993;SDS011;26722;43.212;27.932;2023-11-18T11:46:31;3.95;;;2.42;;
40993;SDS011;26722;43.212;27.932;2023-11-18T11:49:02;3.97;;;2.10;;
40993;SDS011;26722;43.212;27.932;2023-11-18T11:51:44;5.05;;;2.63;;
40993;SDS011;26722;43.212;27.932;2023-11-18T11:54:17;2.92;;;2.50;;
40993;SDS011;26722;43.212;27.932;2023-11-18T11:56:55;3.28;;;2.53;;
40993;SDS011;26722;43.212;27.932;2023-11-18T12:02:09;2.53;;;1.95;;
40993;SDS011;26722;43.212;27.932;2023-11-18T12:04:43;5.17;;;2.17;;
40993;SDS011;26722;43.212;27.932;2023-11-18T12:07:09;1.95;;;1.38;;
40993;SDS011;26722;43.212;27.932;2023-11-18T12:09:35;2.53;;;1.95;;
40993;SDS011;26722;43.212;27.932;2023-11-18T12:12:04;3.70;;;2.05;;
40993;SDS011;26722;43.212;27.932;2023-11-18T12:14:48;2.28;;;1.65;;
40993;SDS011;26722;43.212;27.932;2023-11-18T12:23:10;3.28;;;1.95;;
40993;SDS011;26722;43.212;27.932;2023-11-18T12:25:43;3.65;;;1.88;;
40993;SDS011;26722;43.212;27.932;2023-11-18T12:30:59;3.22;;;2.03;;
40993;SDS011;26722;43.212;27.932;2023-11-18T12:44:37;2.28;;;1.98;;
40993;SDS011;26722;43.212;27.932;2023-11-18T12:47:06;1.77;;;1.55;;
40993;SDS011;26722;43.212;27.932;2023-11-18T12:49:46;2.15;;;1.98;;
40993;SDS011;26722;43.212;27.932;2023-11-18T12:52:19;6.90;;;1.90;;
40993;SDS011;26722;43.212;27.932;2023-11-18T12:54:46;1.88;;;1.60;;
40993;SDS011;26722;43.212;27.932;2023-11-18T12:57:22;1.58;;;1.15;;
40993;SDS011;26722;43.212;27.932;2023-11-18T12:59:56;1.50;;;1.30;;
40993;SDS011;26722;43.212;27.932;2023-11-18T13:02:21;2.38;;;1.40;;
40993;SDS011;26722;43.212;27.932;2023-11-18T13:04:48;1.65;;;1.20;;
40993;SDS011;26722;43.212;27.932;2023-11-18T13:07:15;2.90;;;0.75;;
40993;SDS011;26722;43.212;27.932;2023-11-18T13:09:42;1.63;;;1.17;;
40993;SDS011;26722;43.212;27.932;2023-11-18T13:12:10;1.48;;;0.95;;
40993;SDS011;26722;43.212;27.932;2023-11-18T13:14:40;2.30;;;1.00;;
40993;SDS011;26722;43.212;27.932;2023-11-18T13:17:09;0.95;;;0.80;;
40993;SDS011;26722;43.212;27.932;2023-11-18T13:19:38;3.83;;;0.90;;
40993;SDS011;26722;43.212;27.932;2023-11-18T13:22:05;1.05;;;0.82;;
40993;SDS011;26722;43.212;27.932;2023-11-18T13:24:35;0.95;;;0.70;;
40993;SDS011;26722;43.212;27.932;2023-11-18T13:27:19;3.30;;;0.90;;
40993;SDS011;26722;43.212;27.932;2023-11-18T13:29:46;0.93;;;0.82;;
40993;SDS011;26722;43.212;27.932;2023-11-18T13:32:16;3.60;;;1.20;;
40993;SDS011;26722;43.212;27.932;2023-11-18T13:34:42;1.10;;;0.60;;
40993;SDS011;26722;43.212;27.932;2023-11-18T13:37:08;2.97;;;0.95;;
40993;SDS011;26722;43.212;27.932;2023-11-18T13:39:35;1.50;;;0.88;;
40993;SDS011;26722;43.212;27.932;2023-11-18T13:44:49;2.45;;;1.10;;
40993;SDS011;26722;43.212;27.932;2023-11-18T13:47:18;1.25;;;0.68;;
40993;SDS011;26722;43.212;27.932;2023-11-18T13:49:45;3.90;;;1.05;;
40993;SDS011;26722;43.212;27.932;2023-11-18T13:52:15;1.13;;;0.80;;
40993;SDS011;26722;43.212;27.932;2023-11-18T13:54:42;3.55;;;0.57;;
40993;SDS011;26722;43.212;27.932;2023-11-18T13:57:10;1.77;;;0.60;;
40993;SDS011;26722;43.212;27.932;2023-11-18T13:59:37;0.65;;;0.65;;
40993;SDS011;26722;43.212;27.932;2023-11-18T14:02:03;0.40;;;0.40;;
40993;SDS011;26722;43.212;27.932;2023-11-18T14:04:30;1.33;;;0.50;;
40993;SDS011;26722;43.212;27.932;2023-11-18T14:07:00;0.65;;;0.47;;
40993;SDS011;26722;43.212;27.932;2023-11-18T14:09:32;0.63;;;0.60;;
40993;SDS011;26722;43.212;27.932;2023-11-18T14:12:10;0.82;;;0.60;;
40993;SDS011;26722;43.212;27.932;2023-11-18T14:14:39;1.27;;;0.70;;
40993;SDS011;26722;43.212;27.932;2023-11-18T14:17:06;1.52;;;0.63;;
40993;SDS011;26722;43.212;27.932;2023-11-18T14:19:35;1.17;;;0.60;;
40993;SDS011;26722;43.212;27.932;2023-11-18T14:22:00;1.88;;;0.68;;
40993;SDS011;26722;43.212;27.932;2023-11-18T14:24:31;0.90;;;0.70;;
40993;SDS011;26722;43.212;27.932;2023-11-18T14:26:57;1.88;;;0.70;;
40993;SDS011;26722;43.212;27.932;2023-11-18T14:29:23;0.70;;;0.55;;
40993;SDS011;26722;43.212;27.932;2023-11-18T14:31:49;0.73;;;0.60;;
40993;SDS011;26722;43.212;27.932;2023-11-18T14:34:14;0.65;;;0.65;;
40993;SDS011;26722;43.212;27.932;2023-11-18T14:36:40;0.82;;;0.80;;
40993;SDS011;26722;43.212;27.932;2023-11-18T14:39:08;2.22;;;0.90;;
40993;SDS011;26722;43.212;27.932;2023-11-18T14:41:35;1.70;;;0.85;;
40993;SDS011;26722;43.212;27.932;2023-11-18T14:44:01;0.82;;;0.40;;
40993;SDS011;26722;43.212;27.932;2023-11-18T14:46:29;2.25;;;0.80;;
40993;SDS011;26722;43.212;27.932;2023-11-18T14:48:56;1.98;;;0.60;;
40993;SDS011;26722;43.212;27.932;2023-11-18T14:51:22;2.03;;;0.70;;
40993;SDS011;26722;43.212;27.932;2023-11-18T14:53:47;1.67;;;0.90;;
40993;SDS011;26722;43.212;27.932;2023-11-18T14:56:13;2.28;;;0.60;;
40993;SDS011;26722;43.212;27.932;2023-11-18T14:58:40;1.83;;;0.52;;
40993;SDS011;26722;43.212;27.932;2023-11-18T15:01:06;1.88;;;0.98;;
40993;SDS011;26722;43.212;27.932;2023-11-18T15:03:32;0.63;;;0.50;;
40993;SDS011;26722;43.212;27.932;2023-11-18T15:05:58;2.60;;;0.90;;
40993;SDS011;26722;43.212;27.932;2023-11-18T15:08:23;1.02;;;0.70;;
40993;SDS011;26722;43.212;27.932;2023-11-18T15:10:49;1.88;;;0.50;;
40993;SDS011;26722;43.212;27.932;2023-11-18T15:13:16;1.25;;;0.85;;